Flight Track Log - Related Links

Times and Time Zones

All times are in EDT time to prevent confusion due to time zone crossing. See the N411CC flight status page for this flight to view local times or setup timezone preferences in your user account.

Time Position Orientation Groundspeed Altitude Reporting Facility
EDT Latitude Longitude Course Direction KTS MPH feet Rate Location/Type
Sun 09:56:55 PM 48.4364 -122.4942 181° South 197 227 8,600  Level Seattle Center
Sun 09:57:56 PM 48.3775 -122.4883 176° South 212 244 9,000 1,082 Climbing Seattle Center
Sun 09:58:57 PM 48.3233 -122.4758 171° South 197 227 10,800 1,525 Climbing Seattle Center
Sun 09:59:58 PM 48.2733 -122.4653 172° South 184 212 12,100 1,279 Climbing Seattle Center
Sun 10:00:59 PM 48.2228 -122.4558 173° South 185 213 13,400 1,426 Climbing Seattle Center
Sun 10:02:00 PM 48.4074 -122.5451 181° South  Level Estimated
Sun 10:02:00 PM 48.1625 -122.4456 174° South 183 211 15,000  Level Seattle Center
Sun 10:03:01 PM 48.1122 -122.4344 172° South 187 215 16,200 1,230 Climbing Seattle Center
Sun 10:04:02 PM 48.0594 -122.4250 173° South 194 223 17,500 1,230 Climbing Seattle Center
Sun 10:05:03 PM 48.0078 -122.4150 173° South 189 217 18,700 1,131 Climbing Seattle Center
Sun 10:06:04 PM 47.9547 -122.4047 173° South 191 220 19,800 1,091 Climbing Seattle Center
Sun 10:07:04 PM 47.8992 -122.3950 173° South 201 231 20,900 595 Climbing Seattle Center
Sun 10:08:05 PM 47.8367 -122.3842 173° South 230 265 21,000 49 Climbing Seattle Center
Sun 10:09:06 PM 47.7639 -122.3706 173° South 263 303 21,000  Level Seattle Center
Sun 10:10:07 PM 47.6722 -122.3550 173° South 284 327 21,000  Level Seattle Center
Sun 10:11:08 PM 47.6011 -122.3397 172° South 291 335 21,000  Level Seattle Center
Sun 10:12:09 PM 47.5222 -122.3264 173° South 288 331 21,000  Level Seattle Center
Sun 10:13:10 PM 47.4425 -122.3122 173° South 289 333 21,000 49 Level Seattle Center
Sun 10:14:11 PM 47.3644 -122.3103 179° South 284 327 21,100  Climbing Seattle Center
Sun 10:15:11 PM 47.2694 -122.3100 180° South 286 329 21,000 -50 Descending Seattle Center
Sun 10:16:12 PM 47.1914 -122.3100 180° South 284 327 21,000  Level Seattle Center
Sun 10:17:13 PM 47.1125 -122.3119 181° South 286 329 21,000  Level Seattle Center
Sun 10:18:14 PM 47.0336 -122.3119 180° South 286 329 21,000  Level Seattle Center
Sun 10:19:15 PM 46.9550 -122.3117 180° South 286 329 21,000  Level Seattle Center
Sun 10:20:16 PM 46.8758 -122.3114 180° South 286 329 21,000  Level Seattle Center
Sun 10:21:16 PM 46.7978 -122.3097 179° South 284 327 21,000  Level Seattle Center
Sun 10:22:17 PM 46.7192 -122.3089 180° South 285 328 21,000 -393 Level Seattle Center
Sun 10:23:18 PM 46.6394 -122.3106 181° South 287 330 20,200 -1,377 Descending Seattle Center
Sun 10:24:19 PM 46.5511 -122.3111 180° South 270 311 18,200 -1,082 Descending Seattle Center
Sun 10:25:20 PM 46.4806 -122.3086 179° South 259 298 18,000 -98 Descending Seattle Center
Sun 10:26:21 PM 46.4069 -122.3103 181° South 266 306 18,000 -319 Level Seattle Center
Sun 10:27:13 PM 46.3417 -122.3161 184° South 273 314 17,400 -942 Descending Seattle Center
Sun 10:28:22 PM 46.2508 -122.3019 174° South 288 331 16,100 -969 Descending Seattle Center
Sun 10:29:23 PM 46.1728 -122.3136 186° South 277 319 15,300 -1,180 Descending Seattle Center
Sun 10:30:24 PM 46.1003 -122.3053 175° South 272 313 13,700 -1,525 Descending Seattle Center
Sun 10:31:25 PM 46.0239 -122.3267 191° South 277 319 12,200 -1,328 Descending Seattle Center
Sun 10:32:26 PM 45.9508 -122.3625 199° South 277 319 11,000 -1,438 Descending Seattle Center
Sun 10:33:26 PM 45.8772 -122.3981 199° South 282 325 9,300 -1,934 Descending Seattle Center
Sun 10:34:27 PM 45.8022 -122.4408 202° Southwest 291 335 7,100 -1,967 Descending Seattle Center
Sun 10:35:28 PM 45.7364 -122.5056 214° Southwest 287 330 5,300 -1,820 Descending Seattle Center
Sun 10:36:29 PM 45.6756 -122.5664 215° Southwest 273 314 3,400 -1,426 Descending Seattle Center
Sun 10:37:30 PM 45.6203 -122.5886 196° South 242 278 2,400 -1,082 Descending Seattle Center
Sun 10:38:31 PM 45.5925 -122.5372 128° Southeast 190 219 1,200 -1,226 Descending Seattle Center
Sun 10:39:03 PM 45.5753 -122.5469 202° Southwest 125 144 500 -1,313 Descending Seattle Center

Login

Don't have an account? Register now (free) for customized features, flight alerts, and more!